createdAt,value
2018-06-25T05:02:02.048Z,5.97
2018-06-25T05:07:07.500Z,6.30
2018-06-25T05:12:10.827Z,5.93
2018-06-25T05:17:14.944Z,5.10
2018-06-25T05:22:18.274Z,4.30
2018-06-25T05:27:22.547Z,3.40
2018-06-25T05:32:25.891Z,2.97
2018-06-25T05:37:29.229Z,3.43
2018-06-25T05:42:33.334Z,4.90
2018-06-25T05:47:36.675Z,5.20
2018-06-25T05:52:39.998Z,5.17
2018-06-25T05:57:43.322Z,5.17
2018-06-25T06:02:46.654Z,4.93
2018-06-25T06:07:49.992Z,4.67
2018-06-25T06:12:53.318Z,4.93
2018-06-25T06:17:56.651Z,4.47
2018-06-25T06:23:00.746Z,4.80
2018-06-25T06:28:04.084Z,4.77
2018-06-25T06:33:07.415Z,4.90
2018-06-25T06:38:11.507Z,4.30
2018-06-25T06:43:14.841Z,3.97
2018-06-25T06:48:18.181Z,4.67
2018-06-25T06:53:21.523Z,5.10
2018-06-25T06:58:24.874Z,4.80
2018-06-25T07:03:28.970Z,4.50
2018-06-25T07:08:32.295Z,4.20
2018-06-25T07:13:35.634Z,3.43
2018-06-25T07:18:38.979Z,4.07
2018-06-25T07:23:42.302Z,3.03
2018-06-25T07:28:45.646Z,2.67
2018-06-25T07:33:48.978Z,3.73
2018-06-25T07:38:52.306Z,3.60
2018-06-25T07:43:56.423Z,4.33
2018-06-25T07:48:59.792Z,3.77
2018-06-25T07:54:03.319Z,3.57
2018-06-25T07:59:06.831Z,2.87
2018-06-25T08:04:10.247Z,3.03
2018-06-25T08:09:13.573Z,3.70
2018-06-25T08:14:16.910Z,2.73
2018-06-25T08:19:20.503Z,3.03
2018-06-25T08:24:24.119Z,2.93
2018-06-25T08:29:27.722Z,2.63
2018-06-25T08:34:31.384Z,2.53
2018-06-25T08:39:34.767Z,4.13
2018-06-25T08:44:38.122Z,3.03
2018-06-25T08:49:42.230Z,2.83
2018-06-25T08:54:45.739Z,3.07
2018-06-25T08:59:49.087Z,3.53
2018-06-25T09:04:53.189Z,3.40
2018-06-25T09:09:56.772Z,2.50
2018-06-25T09:15:00.038Z,2.63
2018-06-25T09:20:04.135Z,2.23
2018-06-25T09:25:07.471Z,2.63
2018-06-25T09:30:10.822Z,2.50
2018-06-25T09:35:14.165Z,2.20
2018-06-25T09:40:17.503Z,2.90
2018-06-25T09:45:20.827Z,3.10
2018-06-25T09:50:24.158Z,2.70
2018-06-25T09:55:28.255Z,2.27
2018-06-25T10:00:31.583Z,2.67
2018-06-25T10:05:34.919Z,2.80
2018-06-25T10:10:39.222Z,3.10
2018-06-25T10:15:42.521Z,2.70
2018-06-25T10:20:45.852Z,2.53
2018-06-25T10:25:49.180Z,2.17
2018-06-25T10:30:53.278Z,1.67
2018-06-25T10:35:56.606Z,2.07
2018-06-25T10:40:59.951Z,1.60
2018-06-25T10:46:03.278Z,2.10
2018-06-25T10:51:06.615Z,2.07
2018-06-25T10:56:09.943Z,1.67
2018-06-25T11:01:13.304Z,1.60
2018-06-25T11:06:17.382Z,1.70
2018-06-25T11:11:20.711Z,1.60
2018-06-25T11:16:24.049Z,1.70
2018-06-25T11:21:28.146Z,1.90
2018-06-25T11:26:31.480Z,1.30
2018-06-25T11:31:34.808Z,0.90
2018-06-25T11:36:38.898Z,1.30
2018-06-25T11:41:42.283Z,1.00
2018-06-25T11:46:45.579Z,0.80
2018-06-25T11:51:48.931Z,0.87
2018-06-25T11:56:52.241Z,0.77
2018-06-25T12:01:55.578Z,0.90
2018-06-25T12:06:59.771Z,1.20
2018-06-25T12:12:03.112Z,0.80
2018-06-25T12:17:06.438Z,1.10
2018-06-25T12:22:09.777Z,1.30
2018-06-25T12:27:13.117Z,1.20
2018-06-25T12:32:16.451Z,1.23
2018-06-25T12:37:19.783Z,1.27
2018-06-25T12:42:23.126Z,1.30
2018-06-25T12:47:26.456Z,1.10
2018-06-25T12:52:29.778Z,1.10
2018-06-25T12:57:33.107Z,1.17
2018-06-25T13:02:36.444Z,1.30
2018-06-25T13:07:39.794Z,1.00
2018-06-25T13:12:43.126Z,1.40
2018-06-25T13:17:46.455Z,0.90
2018-06-25T13:22:49.783Z,0.73
2018-06-25T13:27:53.109Z,0.93
2018-06-25T13:32:56.452Z,0.70
2018-06-25T13:37:59.778Z,1.00
2018-06-25T13:43:03.118Z,1.10
2018-06-25T13:48:06.446Z,1.00
2018-06-25T13:53:09.777Z,0.90
2018-06-25T13:58:13.106Z,1.10
2018-06-25T14:03:17.208Z,0.80
2018-06-25T14:08:20.544Z,0.60
2018-06-25T14:13:24.642Z,0.70
2018-06-25T14:18:27.971Z,0.80
2018-06-25T14:23:31.304Z,0.70
2018-06-25T14:28:35.394Z,0.80
2018-06-25T14:33:38.759Z,0.97
2018-06-25T14:38:42.847Z,0.77
2018-06-25T14:43:46.175Z,1.00
2018-06-25T14:48:49.513Z,0.90
2018-06-25T14:53:52.846Z,1.10
2018-06-25T14:58:56.173Z,1.03
2018-06-25T15:03:59.495Z,1.07
2018-06-25T15:09:02.822Z,1.27
2018-06-25T15:14:06.158Z,1.20
2018-06-25T15:19:10.255Z,1.10
2018-06-25T15:24:13.585Z,1.30
2018-06-25T15:29:16.928Z,1.40
2018-06-25T15:34:20.270Z,1.30
2018-06-25T15:39:23.599Z,1.20
2018-06-25T15:44:26.943Z,1.30
2018-06-25T15:49:30.270Z,1.50
2018-06-25T15:54:33.605Z,1.10
2018-06-25T15:59:36.933Z,1.20
2018-06-25T16:04:40.262Z,0.93
2018-06-25T16:09:43.598Z,0.97
2018-06-25T16:14:46.933Z,1.30
2018-06-25T16:19:51.022Z,1.57
2018-06-25T16:24:54.346Z,1.17
2018-06-25T16:29:57.671Z,1.10
2018-06-25T16:35:01.015Z,1.10
2018-06-25T16:40:04.368Z,1.20
2018-06-25T16:45:07.716Z,0.60
2018-06-25T16:50:37.728Z,0.77
2018-06-25T16:55:41.053Z,0.60
2018-06-25T17:00:57.282Z,0.87
2018-06-25T17:06:01.387Z,0.97
2018-06-25T17:11:09.912Z,0.60
2018-06-25T17:16:13.246Z,0.57
2018-06-25T17:21:16.981Z,0.70
2018-06-25T17:26:20.610Z,0.70
2018-06-25T17:31:24.286Z,0.90
2018-06-25T17:36:28.557Z,0.50
2018-06-25T17:41:31.902Z,0.80
2018-06-25T17:46:35.235Z,0.63
2018-06-25T17:51:38.563Z,0.60
2018-06-25T17:56:41.895Z,0.90
2018-06-25T18:01:45.232Z,0.77
2018-06-25T18:06:48.563Z,0.80
2018-06-25T18:11:51.902Z,0.80
2018-06-25T18:16:55.233Z,0.90
2018-06-25T18:21:58.577Z,0.90
2018-06-25T18:27:02.683Z,0.73
2018-06-25T18:32:06.279Z,0.70
2018-06-25T18:37:09.609Z,0.80
2018-06-25T18:42:12.938Z,1.07
2018-06-25T18:47:17.057Z,0.80
2018-06-25T18:52:20.412Z,0.60
2018-06-25T18:57:23.750Z,0.80
2018-06-25T19:02:27.099Z,0.70
2018-06-25T19:07:30.446Z,0.90
2018-06-25T19:12:34.100Z,1.00
2018-06-25T19:17:37.619Z,1.00
2018-06-25T19:22:40.975Z,1.23
2018-06-25T19:27:44.758Z,1.00
2018-06-25T19:32:48.090Z,2.07
2018-06-25T19:37:51.471Z,2.70
2018-06-25T19:42:55.107Z,1.60
2018-06-25T19:47:58.546Z,1.63
2018-06-25T19:53:02.235Z,1.73
2018-06-25T19:58:05.674Z,1.57
2018-06-25T20:03:09.056Z,1.33
2018-06-25T20:08:12.394Z,1.30
2018-06-25T20:13:15.755Z,1.70
2018-06-25T20:18:19.079Z,1.57
2018-06-25T20:23:22.403Z,1.93
2018-06-25T20:28:25.927Z,1.50
2018-06-25T20:33:29.284Z,2.77
2018-06-25T20:38:43.623Z,1.90
2018-06-25T20:43:46.950Z,1.93
2018-06-25T20:48:52.194Z,1.80
2018-06-25T20:53:55.609Z,1.87
2018-06-25T20:58:58.936Z,1.47
2018-06-25T21:04:02.267Z,1.27
2018-06-25T21:09:06.359Z,1.30
2018-06-25T21:14:09.681Z,1.30
2018-06-25T21:19:17.082Z,1.37
2018-06-25T21:24:20.403Z,1.30
2018-06-25T21:29:23.732Z,1.47
2018-06-25T21:34:27.062Z,1.00
2018-06-25T21:45:06.340Z,1.23
2018-06-25T21:50:20.658Z,1.20
2018-06-25T21:55:23.985Z,1.20
2018-06-25T22:00:54.747Z,1.00
2018-06-25T22:05:58.082Z,1.50
2018-06-25T22:11:01.423Z,1.73
2018-06-25T22:16:05.519Z,1.70
2018-06-25T22:21:08.843Z,1.50
2018-06-25T22:26:12.173Z,1.40
